createdAt,value
2019-05-15T00:01:51.502Z,9.89
2019-05-15T00:02:51.506Z,9.87
2019-05-15T00:04:44.405Z,9.83
2019-05-15T00:05:44.415Z,9.78
2019-05-15T00:07:39.115Z,9.75
2019-05-15T00:08:38.707Z,9.78
2019-05-15T00:10:30.227Z,9.66
2019-05-15T00:11:30.237Z,9.64
2019-05-15T00:13:23.141Z,9.69
2019-05-15T00:14:23.152Z,9.54
2019-05-15T00:16:18.047Z,9.58
2019-05-15T00:17:16.054Z,9.48
2019-05-15T00:19:08.969Z,9.54
2019-05-15T00:20:09.959Z,9.57
2019-05-15T00:22:01.868Z,9.50
2019-05-15T00:23:01.869Z,9.50
2019-05-15T00:24:54.773Z,9.42
2019-05-15T00:25:54.778Z,9.42
2019-05-15T00:27:49.101Z,9.46
2019-05-15T00:28:48.036Z,9.48
2019-05-15T00:30:40.586Z,9.39
2019-05-15T00:31:40.596Z,9.38
2019-05-15T00:33:33.502Z,9.42
2019-05-15T00:34:33.502Z,9.36
2019-05-15T00:36:28.509Z,9.43
2019-05-15T00:37:28.758Z,9.42
2019-05-15T00:39:19.322Z,9.40
2019-05-15T00:40:19.333Z,9.39
2019-05-15T00:42:12.229Z,9.39
2019-05-15T00:43:12.230Z,9.42
2019-05-15T00:45:05.130Z,9.31
2019-05-15T00:46:05.140Z,9.31
2019-05-15T00:47:58.052Z,9.26
2019-05-15T00:48:59.218Z,9.24
2019-05-15T00:50:50.951Z,9.26
2019-05-15T00:51:50.963Z,9.20
2019-05-15T00:53:43.871Z,9.17
2019-05-15T00:54:43.865Z,9.11
2019-05-15T00:56:38.940Z,9.18
2019-05-15T00:57:38.908Z,9.08
2019-05-15T00:59:30.226Z,9.08
2019-05-15T01:00:29.683Z,9.04
2019-05-15T01:02:22.588Z,9.05
2019-05-15T01:03:22.592Z,9.10
2019-05-15T01:05:15.501Z,9.05
2019-05-15T01:06:15.566Z,8.98
2019-05-15T01:08:08.421Z,8.99
2019-05-15T01:09:08.530Z,8.91
2019-05-15T01:11:01.307Z,8.92
2019-05-15T01:12:01.315Z,8.89
2019-05-15T01:13:54.220Z,8.87
2019-05-15T01:14:54.224Z,8.79
2019-05-15T01:16:48.974Z,8.77
2019-05-15T01:17:49.061Z,8.79
2019-05-15T01:19:40.038Z,8.74
2019-05-15T01:20:40.040Z,8.70
2019-05-15T01:22:32.948Z,8.71
2019-05-15T01:23:32.961Z,8.76
2019-05-15T01:25:27.923Z,8.63
2019-05-15T01:26:28.081Z,8.63
2019-05-15T01:28:18.762Z,8.65
2019-05-15T01:29:18.765Z,8.76
2019-05-15T01:31:11.667Z,8.66
2019-05-15T01:32:11.674Z,8.61
2019-05-15T01:34:04.588Z,8.63
2019-05-15T01:35:04.581Z,8.56
2019-05-15T01:36:59.078Z,8.61
2019-05-15T01:37:58.562Z,8.55
2019-05-15T01:39:50.391Z,8.50
2019-05-15T01:40:50.393Z,8.63
2019-05-15T01:42:43.299Z,8.59
2019-05-15T01:43:43.299Z,8.53
2019-05-15T01:45:39.069Z,8.55
2019-05-15T01:46:39.209Z,8.50
2019-05-15T01:48:29.609Z,8.43
2019-05-15T01:49:29.613Z,8.40
2019-05-15T01:51:22.510Z,8.41
2019-05-15T01:52:22.516Z,8.37
2019-05-15T01:54:15.423Z,8.34
2019-05-15T01:55:15.422Z,8.30
2019-05-15T01:57:09.351Z,8.33
2019-05-15T01:58:09.151Z,8.20
2019-05-15T02:00:01.261Z,8.20
2019-05-15T02:01:01.250Z,8.22
2019-05-15T02:02:54.144Z,8.16
2019-05-15T02:03:54.146Z,8.15
2019-05-15T02:05:48.074Z,8.11
2019-05-15T02:06:48.315Z,8.07
2019-05-15T02:08:39.962Z,8.10
2019-05-15T02:09:39.960Z,8.04
2019-05-15T02:11:32.862Z,8.01
2019-05-15T02:12:32.868Z,8.00
2019-05-15T02:14:28.318Z,7.98
2019-05-15T02:15:25.772Z,7.97
2019-05-15T02:17:19.012Z,7.92
2019-05-15T02:18:19.115Z,7.89
2019-05-15T02:20:11.594Z,7.92
2019-05-15T02:21:11.587Z,7.80
2019-05-15T02:23:04.493Z,7.74
2019-05-15T02:24:04.497Z,7.69
2019-05-15T02:25:58.841Z,7.71
2019-05-15T02:26:58.796Z,7.74
2019-05-15T02:28:50.303Z,7.77
2019-05-15T02:29:50.306Z,7.74
2019-05-15T02:31:43.207Z,7.75
2019-05-15T02:32:43.216Z,7.68
2019-05-15T02:34:39.204Z,7.75
2019-05-15T02:35:38.875Z,7.77
2019-05-15T02:37:29.602Z,7.75
2019-05-15T02:38:29.769Z,7.75
2019-05-15T02:40:21.934Z,7.64
2019-05-15T02:41:21.934Z,7.61
2019-05-15T02:43:14.842Z,7.64
2019-05-15T02:44:14.844Z,7.61
2019-05-15T02:46:10.140Z,7.63
2019-05-15T02:47:09.264Z,7.58
2019-05-15T02:49:00.656Z,7.50
2019-05-15T02:50:00.663Z,7.49
2019-05-15T02:51:53.556Z,7.53
2019-05-15T02:52:53.562Z,7.46
2019-05-15T02:54:49.552Z,7.48
2019-05-15T02:55:49.167Z,7.42
2019-05-15T02:57:39.807Z,7.31
2019-05-15T02:58:39.995Z,7.40
2019-05-15T03:00:41.708Z,7.28
2019-05-15T03:01:32.278Z,7.25
2019-05-15T03:03:25.182Z,7.23
2019-05-15T03:04:25.194Z,7.23
2019-05-15T03:06:19.254Z,7.27
2019-05-15T03:07:19.289Z,7.24
2019-05-15T03:09:10.993Z,7.12
2019-05-15T03:10:10.996Z,7.10
2019-05-15T03:12:03.894Z,7.13
2019-05-15T03:13:03.904Z,7.17
2019-05-15T03:14:59.713Z,7.09
2019-05-15T03:15:59.676Z,7.13
2019-05-15T03:17:49.709Z,7.12
2019-05-15T03:18:50.457Z,7.10
2019-05-15T03:20:42.627Z,7.16
2019-05-15T03:21:42.621Z,7.25
2019-05-15T03:23:35.523Z,7.24
2019-05-15T03:24:35.524Z,7.21
2019-05-15T03:26:29.845Z,7.24
2019-05-15T03:27:30.331Z,7.24
2019-05-15T03:29:21.428Z,7.24
2019-05-15T03:30:22.196Z,7.16
2019-05-15T03:32:27.378Z,7.21
2019-05-15T03:33:20.571Z,7.16
2019-05-15T03:35:13.105Z,7.20
2019-05-15T03:36:12.513Z,7.20
2019-05-15T03:38:00.110Z,7.12
2019-05-15T03:39:00.056Z,7.15
2019-05-15T03:40:52.956Z,7.15
2019-05-15T03:41:52.958Z,7.15
2019-05-15T03:43:49.310Z,7.21
2019-05-15T03:44:45.862Z,7.24
2019-05-15T03:46:39.850Z,7.17
2019-05-15T03:47:40.219Z,7.12
2019-05-15T03:49:31.677Z,7.24
2019-05-15T03:50:31.672Z,7.13
2019-05-15T03:52:24.571Z,7.24
2019-05-15T03:53:24.578Z,7.23
2019-05-15T03:55:18.702Z,7.25
2019-05-15T03:56:19.093Z,7.32
2019-05-15T03:58:10.563Z,7.68
2019-05-15T03:59:10.393Z,8.01
2019-05-15T04:01:03.317Z,8.50
2019-05-15T04:02:03.305Z,8.73
2019-05-15T04:03:59.618Z,9.53
2019-05-15T04:04:58.075Z,9.61
2019-05-15T04:06:49.827Z,9.96
2019-05-15T04:07:49.594Z,10.04
2019-05-15T04:09:42.021Z,10.17
2019-05-15T04:10:42.022Z,10.17
2019-05-15T04:12:34.933Z,10.38
2019-05-15T04:13:34.934Z,10.59
2019-05-15T04:15:30.124Z,11.00
2019-05-15T04:16:29.635Z,11.33
2019-05-15T04:18:20.746Z,11.79
2019-05-15T04:19:20.749Z,11.91
2019-05-15T04:21:13.697Z,12.28
2019-05-15T04:22:13.691Z,12.42
2019-05-15T04:24:09.282Z,12.83
2019-05-15T04:25:09.372Z,13.22
2019-05-15T04:27:00.032Z,13.73
2019-05-15T04:27:59.512Z,13.91
2019-05-15T04:29:52.425Z,14.29
2019-05-15T04:30:52.427Z,14.40
2019-05-15T04:32:45.333Z,14.72
2019-05-15T04:33:45.342Z,14.78
2019-05-15T04:35:40.275Z,14.81
2019-05-15T04:36:39.552Z,14.95
2019-05-15T04:38:31.163Z,15.19
2019-05-15T04:39:31.222Z,15.14
2019-05-15T04:41:24.091Z,15.17
2019-05-15T04:42:24.094Z,15.27
2019-05-15T04:44:19.279Z,15.29
2019-05-15T04:45:19.410Z,15.41
2019-05-15T04:47:10.033Z,15.59
2019-05-15T04:48:10.586Z,15.60
2019-05-15T04:50:02.847Z,15.93
2019-05-15T04:51:02.851Z,16.23
2019-05-15T04:52:59.035Z,16.52
2019-05-15T04:53:58.456Z,16.67
2019-05-15T04:55:49.317Z,16.63
2019-05-15T04:56:49.019Z,16.66
2019-05-15T04:58:41.598Z,16.97
2019-05-15T04:59:41.634Z,17.28
2019-05-15T05:01:34.531Z,17.75
2019-05-15T05:02:34.566Z,17.81
2019-05-15T05:04:29.485Z,17.97
2019-05-15T05:05:29.336Z,17.97
2019-05-15T05:07:20.364Z,18.14
2019-05-15T05:08:20.977Z,18.25
2019-05-15T05:10:13.295Z,17.97
2019-05-15T05:11:13.311Z,17.95
2019-05-15T05:13:08.698Z,17.81
2019-05-15T05:14:08.508Z,17.72
2019-05-15T05:15:59.154Z,17.70
2019-05-15T05:16:59.418Z,17.62
2019-05-15T05:18:52.088Z,17.59
2019-05-15T05:19:52.087Z,17.56
2019-05-15T05:21:45.003Z,17.43
2019-05-15T05:22:45.014Z,17.25
2019-05-15T05:24:38.511Z,16.93
2019-05-15T05:25:38.816Z,16.76
2019-05-15T05:27:30.862Z,16.08
2019-05-15T05:28:30.872Z,15.69
2019-05-15T05:30:23.791Z,15.17
2019-05-15T05:31:23.800Z,14.81
2019-05-15T05:33:17.948Z,14.35
2019-05-15T05:34:19.200Z,14.12
2019-05-15T05:36:09.641Z,13.77
2019-05-15T05:37:09.649Z,13.55
2019-05-15T05:39:02.561Z,13.01
2019-05-15T05:40:02.572Z,12.85
2019-05-15T05:41:55.483Z,12.93
2019-05-15T05:42:55.490Z,12.92
2019-05-15T05:44:48.924Z,12.92
2019-05-15T05:45:49.115Z,13.01
2019-05-15T05:47:41.333Z,13.39
2019-05-15T05:48:41.337Z,13.59
2019-05-15T05:50:34.257Z,14.02
2019-05-15T05:51:34.256Z,14.17
2019-05-15T05:53:28.721Z,14.46
2019-05-15T05:54:28.814Z,14.68
2019-05-15T05:56:20.103Z,15.09
2019-05-15T05:57:20.120Z,15.36
2019-05-15T05:59:13.027Z,15.57
2019-05-15T06:00:13.042Z,15.67
2019-05-15T06:02:08.223Z,15.80
2019-05-15T06:03:08.672Z,15.82
2019-05-15T06:04:58.889Z,16.21
2019-05-15T06:05:59.256Z,16.45
2019-05-15T06:07:51.845Z,16.50
2019-05-15T06:08:51.853Z,16.64
2019-05-15T06:10:44.772Z,16.79
2019-05-15T06:11:44.784Z,16.61
2019-05-15T06:13:38.280Z,17.15
2019-05-15T06:14:38.108Z,17.07
2019-05-15T06:16:30.645Z,17.49
2019-05-15T06:17:30.657Z,17.30
2019-05-15T06:19:23.575Z,17.63
2019-05-15T06:20:23.592Z,17.70
2019-05-15T06:22:18.628Z,17.92
2019-05-15T06:23:22.281Z,17.79
2019-05-15T06:25:11.229Z,17.96
2019-05-15T06:26:09.729Z,17.82
2019-05-15T06:28:02.399Z,17.78
2019-05-15T06:29:02.411Z,17.72
2019-05-15T06:31:00.373Z,17.90
2019-05-15T06:31:55.352Z,17.96
2019-05-15T06:33:49.019Z,17.74
2019-05-15T06:34:48.612Z,17.66
2019-05-15T06:36:41.223Z,17.30
2019-05-15T06:37:41.237Z,17.31
2019-05-15T06:39:34.160Z,17.12
2019-05-15T06:40:34.177Z,17.06
2019-05-15T06:42:28.291Z,16.97
2019-05-15T06:43:28.046Z,16.91
2019-05-15T06:45:20.040Z,17.06
2019-05-15T06:46:20.053Z,16.98
2019-05-15T06:48:12.981Z,16.67
2019-05-15T06:49:12.995Z,16.82
2019-05-15T06:51:05.928Z,16.88
2019-05-15T06:52:05.935Z,16.63
2019-05-15T06:53:58.859Z,16.35
2019-05-15T06:54:59.376Z,16.15
2019-05-15T06:56:51.802Z,16.15
2019-05-15T06:57:51.814Z,15.90
2019-05-15T06:59:44.733Z,16.24
2019-05-15T07:00:44.750Z,16.21
2019-05-15T07:02:38.200Z,16.39
2019-05-15T07:03:39.179Z,16.41
2019-05-15T07:05:30.616Z,16.52
2019-05-15T07:06:30.635Z,16.38
2019-05-15T07:08:23.569Z,16.64
2019-05-15T07:09:23.577Z,16.31
2019-05-15T07:11:18.914Z,16.30
2019-05-15T07:12:18.521Z,16.49
2019-05-15T07:14:09.450Z,16.17
2019-05-15T07:15:09.489Z,15.93
2019-05-15T07:17:02.393Z,15.53
2019-05-15T07:18:02.403Z,15.41
2019-05-15T07:19:55.323Z,15.31
2019-05-15T07:20:57.912Z,15.34
2019-05-15T07:22:49.159Z,15.07
2019-05-15T07:23:49.632Z,14.98
2019-05-15T07:25:41.188Z,14.64
2019-05-15T07:26:41.203Z,14.50
2019-05-15T07:28:34.132Z,14.12
2019-05-15T07:29:34.132Z,14.14
2019-05-15T07:31:28.884Z,13.95
2019-05-15T07:32:28.503Z,13.91
2019-05-15T07:34:19.975Z,14.02
2019-05-15T07:35:19.985Z,13.95
2019-05-15T07:37:12.905Z,14.00
2019-05-15T07:38:12.911Z,13.95
2019-05-15T07:40:08.229Z,13.87
2019-05-15T07:41:05.839Z,13.92
2019-05-15T07:42:58.831Z,13.87
2019-05-15T07:43:58.797Z,13.85
2019-05-15T07:45:54.965Z,13.77
2019-05-15T07:46:51.675Z,13.79
2019-05-15T07:48:44.591Z,13.73
2019-05-15T07:49:44.598Z,13.64
2019-05-15T07:51:38.183Z,13.60
2019-05-15T07:52:39.432Z,13.54
2019-05-15T07:54:30.426Z,13.60
2019-05-15T07:55:30.439Z,13.48
2019-05-15T07:57:23.351Z,13.36
2019-05-15T07:58:23.366Z,13.30
2019-05-15T08:00:18.571Z,13.30
2019-05-15T08:01:18.535Z,13.29
2019-05-15T08:03:10.273Z,13.30
2019-05-15T08:04:25.131Z,13.36
2019-05-15T08:06:03.258Z,13.22
2019-05-15T08:07:02.133Z,13.22
2019-05-15T08:08:55.045Z,13.19
2019-05-15T08:09:55.052Z,13.36
2019-05-15T08:11:48.622Z,13.45
2019-05-15T08:12:49.490Z,13.51
2019-05-15T08:14:40.878Z,13.55
2019-05-15T08:15:40.889Z,13.69
2019-05-15T08:17:33.803Z,13.91
2019-05-15T08:18:33.807Z,14.12
2019-05-15T08:20:28.828Z,14.33
2019-05-15T08:21:29.065Z,14.42
2019-05-15T08:23:19.799Z,14.14
2019-05-15T08:24:19.646Z,14.14
2019-05-15T08:26:13.554Z,14.22
2019-05-15T08:27:13.564Z,14.14
2019-05-15T08:29:08.438Z,14.24
2019-05-15T08:30:08.757Z,14.24
2019-05-15T08:31:59.439Z,14.15
2019-05-15T08:32:59.420Z,14.17
2019-05-15T08:34:52.321Z,14.22
2019-05-15T08:35:52.322Z,14.15
2019-05-15T08:37:45.249Z,14.27
2019-05-15T08:38:45.244Z,14.20
2019-05-15T08:40:41.141Z,14.33
2019-05-15T08:41:39.121Z,14.33
2019-05-15T08:43:31.506Z,14.20
2019-05-15T08:44:31.085Z,14.20
2019-05-15T08:46:23.992Z,14.46
2019-05-15T08:47:24.031Z,14.54
2019-05-15T08:49:19.875Z,14.70
2019-05-15T08:50:18.245Z,14.62
2019-05-15T08:52:10.327Z,14.50
2019-05-15T08:53:09.843Z,14.51
2019-05-15T08:55:02.759Z,14.47
2019-05-15T08:56:02.762Z,14.55
2019-05-15T08:58:04.160Z,14.68
2019-05-15T08:58:57.932Z,14.65
2019-05-15T09:00:52.402Z,14.75
2019-05-15T09:01:49.103Z,14.91
2019-05-15T09:03:41.536Z,14.98
2019-05-15T09:04:41.527Z,14.89
2019-05-15T09:06:34.438Z,14.99
2019-05-15T09:07:34.446Z,15.10
2019-05-15T09:09:28.753Z,15.29
2019-05-15T09:10:28.764Z,15.23
2019-05-15T09:12:20.291Z,15.32
2019-05-15T09:13:20.284Z,15.39
2019-05-15T09:15:13.197Z,15.38
2019-05-15T09:16:13.204Z,15.29
2019-05-15T09:18:14.360Z,15.21
2019-05-15T09:19:08.271Z,15.07
2019-05-15T09:20:59.485Z,15.07
2019-05-15T09:21:59.046Z,15.02
2019-05-15T09:23:51.959Z,14.84
2019-05-15T09:24:51.964Z,14.86
2019-05-15T09:26:44.873Z,14.75
2019-05-15T09:27:44.884Z,14.75
2019-05-15T09:29:38.185Z,14.70
2019-05-15T09:30:39.171Z,14.65
2019-05-15T09:32:30.711Z,14.80
2019-05-15T09:33:30.729Z,14.83
2019-05-15T09:35:23.636Z,14.98
2019-05-15T09:36:23.643Z,14.95
2019-05-15T09:38:18.483Z,14.99
2019-05-15T09:39:18.283Z,14.95
2019-05-15T09:41:09.474Z,15.01
2019-05-15T09:42:09.485Z,15.02
2019-05-15T09:44:02.399Z,14.91
2019-05-15T09:45:02.407Z,14.92
2019-05-15T09:46:55.314Z,14.99
2019-05-15T09:47:55.326Z,15.17
2019-05-15T09:49:48.578Z,15.31
2019-05-15T09:50:49.397Z,15.46
2019-05-15T09:52:41.156Z,15.31
2019-05-15T09:53:41.167Z,15.35
2019-05-15T09:55:34.080Z,15.41
2019-05-15T09:56:34.085Z,15.35
2019-05-15T09:58:27.004Z,15.38
2019-05-15T09:59:28.187Z,15.41
2019-05-15T10:01:20.915Z,15.41
2019-05-15T10:02:20.928Z,15.39
2019-05-15T10:04:13.902Z,15.43
2019-05-15T10:05:13.847Z,15.43
2019-05-15T10:07:08.212Z,15.47
2019-05-15T10:08:08.924Z,15.36
2019-05-15T10:09:59.691Z,15.36
2019-05-15T10:10:59.708Z,15.44
2019-05-15T10:12:52.610Z,15.44
2019-05-15T10:13:52.621Z,15.59
2019-05-15T10:15:48.327Z,15.43
2019-05-15T10:16:45.542Z,15.43
2019-05-15T10:18:39.212Z,15.32
2019-05-15T10:19:38.465Z,15.35
2019-05-15T10:21:32.613Z,15.23
2019-05-15T10:22:31.391Z,15.38
2019-05-15T10:24:24.308Z,15.32
2019-05-15T10:25:24.314Z,15.36
2019-05-15T10:27:18.039Z,15.44
2019-05-15T10:28:18.773Z,15.46
2019-05-15T10:30:10.200Z,15.56
2019-05-15T10:31:10.172Z,15.59
2019-05-15T10:33:03.163Z,15.59
2019-05-15T10:34:03.100Z,15.69
2019-05-15T10:35:58.825Z,15.84
2019-05-15T10:36:58.768Z,15.78
2019-05-15T10:38:49.498Z,15.82
2019-05-15T10:39:52.598Z,15.82
2019-05-15T10:41:42.360Z,15.78
2019-05-15T10:42:42.374Z,15.71
2019-05-15T10:44:35.301Z,15.75
2019-05-15T10:45:35.308Z,15.67
2019-05-15T10:47:28.889Z,15.75
2019-05-15T10:48:29.226Z,15.67
2019-05-15T10:50:21.159Z,15.65
2019-05-15T10:51:21.154Z,15.74
2019-05-15T10:53:14.071Z,15.76
2019-05-15T10:54:14.082Z,15.87
2019-05-15T10:56:08.904Z,15.92
2019-05-15T10:57:08.598Z,15.97
2019-05-15T10:58:59.919Z,15.86
2019-05-15T10:59:59.928Z,15.83
2019-05-15T11:01:52.843Z,15.82
2019-05-15T11:02:52.856Z,15.80
2019-05-15T11:04:45.770Z,15.74
2019-05-15T11:05:46.027Z,15.74
2019-05-15T11:07:39.413Z,15.51
2019-05-15T11:08:40.713Z,15.54
2019-05-15T11:10:31.619Z,15.65
2019-05-15T11:11:31.624Z,15.56
2019-05-15T11:13:24.539Z,15.75
2019-05-15T11:14:24.549Z,15.82
2019-05-15T11:16:18.677Z,15.89
2019-05-15T11:17:17.477Z,15.82
2019-05-15T11:19:10.393Z,15.90
2019-05-15T11:20:10.397Z,15.97
2019-05-15T11:22:03.317Z,16.05
2019-05-15T11:23:03.333Z,16.12
2019-05-15T11:24:56.251Z,16.11
2019-05-15T11:25:58.166Z,16.04
2019-05-15T11:27:49.172Z,15.84
2019-05-15T11:28:49.914Z,15.83
2019-05-15T11:30:42.102Z,15.86
2019-05-15T11:31:42.110Z,16.01
2019-05-15T11:33:35.021Z,16.33
2019-05-15T11:34:35.037Z,16.34
2019-05-15T11:36:28.790Z,16.24
2019-05-15T11:37:28.332Z,16.31
2019-05-15T11:39:22.371Z,16.52
2019-05-15T11:40:22.378Z,16.48
2019-05-15T11:42:15.288Z,16.21
2019-05-15T11:43:15.299Z,16.17
2019-05-15T11:45:08.225Z,16.35
2019-05-15T11:46:09.958Z,16.41
2019-05-15T11:48:01.172Z,16.46
2019-05-15T11:49:01.149Z,16.49
2019-05-15T11:50:54.073Z,16.61
2019-05-15T11:51:54.078Z,16.67
2019-05-15T11:53:49.218Z,16.61
2019-05-15T11:54:49.443Z,16.56
2019-05-15T11:56:39.928Z,16.49
2019-05-15T11:57:46.936Z,16.60
2019-05-15T11:59:32.846Z,16.64
2019-05-15T12:00:32.854Z,16.61
2019-05-15T12:02:25.767Z,16.93
2019-05-15T12:03:25.779Z,16.97
2019-05-15T12:05:18.704Z,17.04
2019-05-15T12:06:22.617Z,17.03
2019-05-15T12:08:12.657Z,16.93
2019-05-15T12:09:11.655Z,16.96
2019-05-15T12:11:04.570Z,16.63
2019-05-15T12:12:04.578Z,16.67
2019-05-15T12:13:57.511Z,16.60
2019-05-15T12:14:57.507Z,16.63
2019-05-15T12:17:50.431Z,16.79
2019-05-15T12:19:43.350Z,16.91
2019-05-15T12:20:43.350Z,16.91
2019-05-15T12:22:38.943Z,16.83
2019-05-15T12:23:38.716Z,16.76
2019-05-15T12:25:31.967Z,16.82
2019-05-15T12:26:29.726Z,16.88
2019-05-15T12:28:22.641Z,17.00
2019-05-15T12:29:22.652Z,17.11
2019-05-15T12:31:15.568Z,17.08
2019-05-15T12:34:09.223Z,17.03
2019-05-15T12:35:08.506Z,16.97
2019-05-15T12:37:01.425Z,16.91
2019-05-15T12:38:01.431Z,16.86
2019-05-15T13:00:07.469Z,17.11
2019-05-15T13:01:16.570Z,17.08
2019-05-15T13:02:59.381Z,17.14
2019-05-15T13:03:58.299Z,17.15
2019-05-15T13:05:51.669Z,17.22
2019-05-15T13:07:11.685Z,17.30
2019-05-15T13:08:44.150Z,17.44
2019-05-15T13:09:44.163Z,17.43
2019-05-15T13:11:37.815Z,17.40
2019-05-15T13:12:47.604Z,17.38
2019-05-15T13:14:30.039Z,17.44
2019-05-15T13:15:30.051Z,17.52
2019-05-15T13:17:23.095Z,17.44
2019-05-15T13:18:23.103Z,17.52
2019-05-15T13:20:18.259Z,17.66
2019-05-15T13:21:20.591Z,17.59
2019-05-15T13:23:08.975Z,17.70
2019-05-15T13:24:08.959Z,17.78
2019-05-15T13:26:01.885Z,17.74
2019-05-15T13:27:01.892Z,17.71
2019-05-15T13:28:54.807Z,17.72
2019-05-15T13:29:54.823Z,17.62
2019-05-15T13:31:47.936Z,17.41
2019-05-15T13:32:49.667Z,17.41
2019-05-15T13:34:40.671Z,17.40
2019-05-15T13:35:40.681Z,17.37
2019-05-15T13:37:33.605Z,17.41
2019-05-15T13:38:33.615Z,17.46
2019-05-15T13:40:36.989Z,17.43
2019-05-15T13:41:28.243Z,17.52
2019-05-15T13:43:19.461Z,17.75
2019-05-15T13:44:19.476Z,17.72
2019-05-15T13:46:12.397Z,17.92
2019-05-15T13:47:12.405Z,17.97
2019-05-15T13:49:05.328Z,18.27
2019-05-15T13:50:05.337Z,18.29
2019-05-15T13:51:59.316Z,18.33
2019-05-15T13:52:58.980Z,18.26
2019-05-15T13:54:51.207Z,18.23
2019-05-15T13:55:51.209Z,18.23
2019-05-15T13:57:44.133Z,18.14
2019-05-15T13:58:44.136Z,18.14
2019-05-15T14:00:39.050Z,17.93
2019-05-15T14:01:39.395Z,17.81
2019-05-15T14:03:29.985Z,17.81
2019-05-15T14:04:30.048Z,17.74
2019-05-15T14:06:22.927Z,17.64
2019-05-15T14:07:22.928Z,17.46
2019-05-15T14:09:15.847Z,17.46
2019-05-15T14:10:17.969Z,17.59
2019-05-15T14:12:12.470Z,17.77
2019-05-15T14:13:08.788Z,17.75
2019-05-15T14:15:01.742Z,17.81
2019-05-15T14:16:01.717Z,17.97
2019-05-15T14:17:54.639Z,18.14
2019-05-15T14:18:54.644Z,18.05
2019-05-15T14:20:49.028Z,18.02
2019-05-15T14:21:49.056Z,17.90
2019-05-15T14:23:40.488Z,17.75
2019-05-15T14:24:40.502Z,17.78
2019-05-15T14:26:33.422Z,17.90
2019-05-15T14:27:33.432Z,17.95
2019-05-15T14:29:28.976Z,18.18
2019-05-15T14:30:29.025Z,18.23
2019-05-15T14:32:33.922Z,18.36
2019-05-15T14:33:19.553Z,18.42
2019-05-15T14:35:12.223Z,18.62
2019-05-15T14:36:12.217Z,18.55
2019-05-15T14:38:06.774Z,18.50
2019-05-15T14:39:05.147Z,18.32
2019-05-15T14:40:59.060Z,18.29
2019-05-15T14:41:58.406Z,18.18
2019-05-15T14:43:51.102Z,18.05
2019-05-15T14:44:51.117Z,18.10
2019-05-15T14:46:44.036Z,18.12
2019-05-15T14:47:44.039Z,18.23
2019-05-15T14:49:43.576Z,18.25
2019-05-15T14:50:38.472Z,18.21
2019-05-15T14:52:29.903Z,18.23
2019-05-15T14:53:29.914Z,18.12
2019-05-15T14:55:22.865Z,18.25
2019-05-15T14:56:22.839Z,18.23
2019-05-15T14:58:15.765Z,18.30
2019-05-15T14:59:15.797Z,18.37
2019-05-15T15:01:12.523Z,18.41
2019-05-15T15:02:09.181Z,18.45
2019-05-15T15:04:01.613Z,18.30
2019-05-15T15:05:01.629Z,18.15
2019-05-15T15:06:54.549Z,18.07
2019-05-15T15:07:54.557Z,18.07
2019-05-15T15:09:47.842Z,17.97
2019-05-15T15:10:47.491Z,17.90
2019-05-15T15:12:40.404Z,17.68
2019-05-15T15:13:40.415Z,17.71
2019-05-15T15:15:33.345Z,17.74
2019-05-15T15:16:33.347Z,17.71
2019-05-15T15:18:28.097Z,17.72
2019-05-15T15:19:29.132Z,17.75
2019-05-15T15:21:22.066Z,17.81
2019-05-15T15:22:19.206Z,17.79
2019-05-15T15:24:12.130Z,17.74
2019-05-15T15:25:12.145Z,17.77
2019-05-15T15:27:08.158Z,17.75
2019-05-15T15:28:08.051Z,17.75
2019-05-15T15:29:58.487Z,17.68
2019-05-15T15:30:58.495Z,17.63
2019-05-15T15:32:51.413Z,17.71
2019-05-15T15:33:51.419Z,17.71
2019-05-15T15:35:44.333Z,17.75
2019-05-15T15:36:44.347Z,17.77
2019-05-15T15:38:41.659Z,17.77
2019-05-15T15:39:38.656Z,17.84
2019-05-15T15:41:30.198Z,17.97
2019-05-15T15:42:30.204Z,18.12
2019-05-15T15:44:23.120Z,17.95
2019-05-15T15:45:23.148Z,17.96
2019-05-15T15:47:16.052Z,18.00
2019-05-15T15:48:16.060Z,17.93
2019-05-15T15:50:09.825Z,17.95
2019-05-15T15:51:09.325Z,17.95
2019-05-15T15:53:01.914Z,17.86
2019-05-15T15:54:01.924Z,17.90
2019-05-15T15:55:54.837Z,17.97
2019-05-15T15:56:54.845Z,17.97
2019-05-15T15:58:48.925Z,17.95
2019-05-15T15:59:49.159Z,18.02
2019-05-15T16:01:40.695Z,17.95
2019-05-15T16:02:41.350Z,18.00
2019-05-15T16:04:33.619Z,17.97
2019-05-15T16:05:33.632Z,17.92
2019-05-15T16:07:28.287Z,17.93
2019-05-15T16:08:28.516Z,18.02
2019-05-15T16:10:19.479Z,18.29
2019-05-15T16:11:19.490Z,18.36
2019-05-15T16:13:12.413Z,18.62
2019-05-15T16:14:12.419Z,18.63
2019-05-15T16:16:05.333Z,18.58
2019-05-15T16:17:05.348Z,18.45
2019-05-15T16:18:58.283Z,18.26
2019-05-15T16:19:58.282Z,18.20
2019-05-15T16:21:51.202Z,18.08
2019-05-15T16:22:51.244Z,18.03
2019-05-15T16:24:44.124Z,18.12
2019-05-15T16:25:44.145Z,18.02
2019-05-15T16:27:38.276Z,17.77
2019-05-15T16:28:38.779Z,17.70
2019-05-15T16:30:30.021Z,17.63
2019-05-15T16:31:30.017Z,17.62
2019-05-15T16:33:22.929Z,17.75
2019-05-15T16:34:22.936Z,17.77
2019-05-15T16:36:18.137Z,17.74
2019-05-15T16:37:18.667Z,17.82
2019-05-15T16:39:11.690Z,17.93
2019-05-15T16:40:08.790Z,17.99
2019-05-15T16:42:01.710Z,17.99
2019-05-15T16:43:01.715Z,17.99
2019-05-15T16:44:54.651Z,18.10
2019-05-15T16:45:54.663Z,18.12
2019-05-15T16:47:48.164Z,18.08
2019-05-15T16:48:49.438Z,18.10
2019-05-15T16:50:40.509Z,18.17
2019-05-15T16:51:40.523Z,18.17
2019-05-15T16:53:33.445Z,18.26
2019-05-15T16:54:33.450Z,18.29
2019-05-15T16:56:28.363Z,18.33
2019-05-15T16:57:28.404Z,18.35
2019-05-15T16:59:19.318Z,18.15
2019-05-15T17:00:19.327Z,17.97
2019-05-15T17:02:12.249Z,17.86
2019-05-15T17:03:14.930Z,17.75
2019-05-15T17:05:05.160Z,17.58
2019-05-15T17:06:05.174Z,17.41
2019-05-15T17:07:58.467Z,17.31
2019-05-15T17:08:58.115Z,17.28
2019-05-15T17:10:51.014Z,17.22
2019-05-15T17:11:51.029Z,17.16
2019-05-15T17:13:43.959Z,17.23
2019-05-15T17:14:43.955Z,17.28
2019-05-15T17:16:38.684Z,17.33
2019-05-15T17:17:38.783Z,17.46
2019-05-15T17:19:29.824Z,17.52
2019-05-15T17:20:29.818Z,17.54
2019-05-15T17:22:22.734Z,17.70
2019-05-15T17:23:22.749Z,17.70
2019-05-15T17:25:18.172Z,17.71
2019-05-15T17:26:15.665Z,17.74
2019-05-15T17:28:09.130Z,17.75
2019-05-15T17:29:09.013Z,17.82
2019-05-15T17:31:01.512Z,17.95
2019-05-15T17:32:01.523Z,17.95
2019-05-15T17:33:54.441Z,18.03
2019-05-15T17:34:54.450Z,18.00
2019-05-15T17:36:48.970Z,17.97
2019-05-15T17:37:48.746Z,17.89
2019-05-15T17:39:41.721Z,17.74
2019-05-15T17:40:40.308Z,17.74
2019-05-15T17:42:33.229Z,17.66
2019-05-15T17:43:33.295Z,17.49
2019-05-15T17:45:28.290Z,17.44
2019-05-15T17:46:29.308Z,17.51
2019-05-15T17:48:19.742Z,17.15
2019-05-15T17:49:19.095Z,17.16
2019-05-15T17:51:12.011Z,17.04
2019-05-15T17:52:12.024Z,16.96
2019-05-15T17:54:04.942Z,17.01
2019-05-15T17:55:04.950Z,16.94
2019-05-15T17:56:58.542Z,16.89
2019-05-15T17:58:00.959Z,16.82
2019-05-15T17:59:50.794Z,16.83
2019-05-15T18:00:50.836Z,16.85
2019-05-15T18:02:44.212Z,16.66
2019-05-15T18:03:44.223Z,16.73
2019-05-15T18:05:39.173Z,16.78
2019-05-15T18:06:39.368Z,16.79
2019-05-15T18:08:30.066Z,16.76
2019-05-15T18:09:30.069Z,16.73
2019-05-15T18:11:22.984Z,16.75
2019-05-15T18:12:22.996Z,16.67
2019-05-15T18:14:15.915Z,16.76
2019-05-15T18:15:15.923Z,16.75
2019-05-15T18:17:08.852Z,16.81
2019-05-15T18:18:09.731Z,16.81
2019-05-15T18:20:01.789Z,16.82
2019-05-15T18:21:01.787Z,16.82
2019-05-15T18:22:54.794Z,16.85
2019-05-15T18:23:54.711Z,16.76
2019-05-15T18:25:49.229Z,16.85
2019-05-15T18:26:48.857Z,16.82
2019-05-15T18:28:40.552Z,16.78
2019-05-15T18:29:40.572Z,16.83
2019-05-15T18:31:33.473Z,16.70
2019-05-15T18:32:33.486Z,16.64
2019-05-15T18:34:28.580Z,16.60
2019-05-15T18:35:26.415Z,16.66
2019-05-15T18:37:19.344Z,16.45
2019-05-15T18:38:19.336Z,16.53
2019-05-15T18:40:12.258Z,16.57
2019-05-15T18:41:12.262Z,16.43
2019-05-15T18:43:05.189Z,16.46
2019-05-15T18:44:05.185Z,16.42
2019-05-15T18:45:58.630Z,16.41
2019-05-15T18:46:58.289Z,16.35
2019-05-15T18:48:51.029Z,16.38
2019-05-15T18:50:04.113Z,16.34
2019-05-15T18:51:43.945Z,16.25
2019-05-15T18:52:43.956Z,16.21
2019-05-15T18:54:38.692Z,16.21
2019-05-15T18:55:38.601Z,16.21
2019-05-15T18:57:29.794Z,16.15
2019-05-15T18:58:29.804Z,16.09
2019-05-15T19:00:22.733Z,16.00
2019-05-15T19:01:22.736Z,15.96
2019-05-15T19:03:21.970Z,15.90
2019-05-15T19:04:18.137Z,15.90
2019-05-15T19:06:08.954Z,15.76